Contact Us:
Email: info@sawbill.com
Phone: (218)663-7150
Fax: (218)663-7980
Mail: 4620 Sawbill Trail
Box 2129
Tofte, MN 55615


Powered by
Movable Type 3.15
 
Sawbill Weather History Archives: October 2011
Current Sawbill Weather History | « September 2011 | November 2011 »


Date

High
Temperature

Low
Temperature

Barometric
Pressure

Relative
Humidity 7AM

9 AM
Temperature

Moisture

Snow

10/31/11 43 38 29.92 89% 39 .03"
10/30/11 44 31 30.15 92% 38 .12"
10/29/11 41 29 30.00 87% 31 0
10/28/11 38 34 29.94 94% 34 .05"
10/27/11 40 25 29.85 97% 28 Trace Trace
10/26/11 41 25 29.85 90% 25 Trace Trace
10/25/11 42 32 29.88 92% 36 0
10/24/11 42 28 29.92 86% 33 0
10/23/11 45 33 29.80 91% 34 0
10/22/11 48 32 29.56 95% 37 Trace
10/21/11 50 28 29.85 51% 35 0
10/20/11 40 28 29.80 51% 28 0
10/19/11 42 32 29.83 77% 32 0
10/18/11 38 32 29.94 88% 32 .02" Trace
10/17/11 42 34 29.71 89% 35 .27"
10/16/11 43 37 29.35 62% 39 Trace Trace
10/15/11 42 37 29.41 77% 40 0
10/14/11 44 37 29.44 72% 37 0
10/13/11 54 43 29.32 98% 43 .87"
10/12/11 63 45 29.47 98% 53 .23"
10/11/11 67 45 29.71 76% 45 0
10/10/11 67 43 29.80 77% 47 0
10/9/11 62 43 30.03 75% 43 0
10/8/11 73 55 30.12 84% 55 .06"
10/7/11 70 55 29.83 75% 65 0
10/6/11 72 47 29.91 75% 55 0
10/5/11 67 46 30.03 78% 47 0
10/4/11 70 40 30.03 74% 45 0
10/3/11 66 40 30.03 72% 40 0
10/2/11 69 35 30.09 72% 40 0
10/1/11 50 30 30.00 83% 35 0
 


Home I Trip Planning I Rentals and Outfitting I Reservations I Campgrounds I Sawbill Store I Sawbill News I Contact

© 1997 - 2017, Sawbill Canoe Outfitters, Inc. I Privacy Policy